Time;durP1;ratioP1;P1;durP2;ratioP2;P2;SDS_P1;SDS_P2;PMS_P1;PMS_P2;Temp;Humidity;BMP_temperature;BMP_pressure;BME280_temperature;BME280_humidity;BME280_pressure;Samples;Min_cycle;Max_cycle;Signal;HPM_P1;HPM_P2
2022/07/17 00:01:46;;;;;;;6.10;3.25;;;11.60;99.90;;;;;;5074309;28;20049;-69
2022/07/17 00:04:12;;;;;;;7.35;3.55;;;11.60;99.90;;;;;;5056961;28;20132;-70
2022/07/17 00:06:37;;;;;;;10.50;4.78;;;11.60;99.90;;;;;;5074379;28;20105;-70
2022/07/17 00:09:03;;;;;;;7.65;3.15;;;11.60;99.90;;;;;;5074412;28;20094;-70
2022/07/17 00:11:29;;;;;;;5.85;2.75;;;11.50;99.90;;;;;;5074827;28;20076;-70
2022/07/17 00:13:55;;;;;;;6.10;2.20;;;11.50;99.90;;;;;;5073973;28;20114;-69
2022/07/17 00:16:22;;;;;;;4.70;2.03;;;11.50;99.90;;;;;;5057212;28;20116;-70
2022/07/17 00:18:48;;;;;;;5.63;2.30;;;11.50;99.90;;;;;;5074413;28;20045;-70
2022/07/17 00:21:13;;;;;;;5.25;2.00;;;11.40;99.90;;;;;;5074196;28;20165;-70
2022/07/17 00:23:39;;;;;;;3.80;1.90;;;11.40;99.90;;;;;;5077541;28;20044;-70
2022/07/17 00:26:05;;;;;;;8.70;2.50;;;11.40;99.90;;;;;;5078041;28;20098;-71
2022/07/17 00:28:30;;;;;;;7.22;2.28;;;11.40;99.90;;;;;;5077944;28;20044;-70
2022/07/17 00:30:56;;;;;;;6.38;2.53;;;11.30;99.90;;;;;;5077890;28;20049;-70
2022/07/17 00:33:21;;;;;;;4.72;2.30;;;11.30;99.90;;;;;;5077836;28;20368;-70
2022/07/17 00:35:47;;;;;;;8.30;2.50;;;11.30;99.90;;;;;;5077731;28;20135;-70
2022/07/17 00:38:13;;;;;;;3.88;1.90;;;11.30;99.90;;;;;;5078088;28;20049;-70
2022/07/17 00:40:39;;;;;;;5.85;2.05;;;11.30;99.90;;;;;;5060599;28;20123;-70
2022/07/17 00:43:05;;;;;;;5.38;1.65;;;11.20;99.90;;;;;;5077658;28;20086;-70
2022/07/17 00:45:30;;;;;;;6.43;2.50;;;11.10;99.90;;;;;;5077586;28;20036;-70
2022/07/17 00:48:04;;;;;;;5.28;1.75;;;11.10;99.90;;;;;;5077551;28;20044;-70
2022/07/17 00:50:36;;;;;;;4.63;1.70;;;11.00;99.90;;;;;;5077254;28;20052;-70
2022/07/17 00:53:03;;;;;;;8.30;2.78;;;11.00;99.90;;;;;;5077665;28;20365;-69
2022/07/17 00:55:29;;;;;;;6.43;2.45;;;11.00;99.90;;;;;;5077490;28;20052;-70
2022/07/17 00:57:57;;;;;;;4.40;2.08;;;11.00;99.90;;;;;;5077586;28;20343;-69
2022/07/17 01:00:23;;;;;;;5.97;2.67;;;11.00;99.90;;;;;;5077479;28;20123;-70
2022/07/17 01:02:51;;;;;;;3.35;1.60;;;11.00;99.90;;;;;;5059620;28;20053;-70
2022/07/17 01:05:18;;;;;;;5.90;1.83;;;10.80;99.90;;;;;;5077727;28;20099;-70
2022/07/17 01:07:44;;;;;;;5.65;2.50;;;10.80;99.90;;;;;;5060356;28;20048;-69
2022/07/17 01:10:11;;;;;;;7.13;2.20;;;10.80;99.90;;;;;;5077226;28;20048;-70
2022/07/17 01:12:37;;;;;;;2.75;1.70;;;10.80;99.90;;;;;;5059885;28;20048;-70
2022/07/17 01:15:04;;;;;;;4.20;2.17;;;10.70;99.90;;;;;;5077056;28;20342;-70
2022/07/17 01:17:30;;;;;;;4.93;2.00;;;10.70;99.90;;;;;;5059340;28;20052;-70
2022/07/17 01:19:56;;;;;;;6.40;1.80;;;10.70;99.90;;;;;;5077182;28;20040;-70
2022/07/17 01:22:22;;;;;;;5.38;2.70;;;10.70;99.90;;;;;;5060396;28;20067;-70
2022/07/17 01:24:48;;;;;;;4.72;2.20;;;10.70;99.90;;;;;;5076876;28;20040;-69
2022/07/17 01:27:14;;;;;;;6.40;2.03;;;10.60;99.90;;;;;;5076740;28;20052;-70
2022/07/17 01:29:40;;;;;;;4.05;1.83;;;10.60;99.90;;;;;;5076846;28;20102;-70
2022/07/17 01:32:05;;;;;;;5.38;2.15;;;10.60;99.90;;;;;;5076637;28;20141;-69
2022/07/17 01:34:31;;;;;;;6.15;3.03;;;10.60;99.90;;;;;;5058641;28;20053;-70
2022/07/17 01:36:57;;;;;;;4.30;2.03;;;10.60;99.90;;;;;;5060027;28;20052;-70
2022/07/17 01:42:07;;;;;;;4.60;1.80;;;10.60;99.90;;;;;;5076530;28;20048;-70
2022/07/17 01:44:33;;;;;;;2.70;1.60;;;10.50;99.90;;;;;;5059089;28;20044;-70
2022/07/17 01:46:58;;;;;;;3.40;1.92;;;10.50;99.90;;;;;;5076754;28;20047;-70
2022/07/17 01:49:24;;;;;;;5.80;2.03;;;10.50;99.90;;;;;;5076312;28;20098;-70
2022/07/17 01:51:50;;;;;;;3.63;1.73;;;10.40;99.90;;;;;;5076958;28;20049;-70
2022/07/17 01:54:15;;;;;;;3.58;1.50;;;10.40;99.90;;;;;;5076312;28;20501;-70
2022/07/17 01:56:41;;;;;;;5.15;2.17;;;10.40;99.90;;;;;;5076179;28;20113;-70
2022/07/17 01:59:06;;;;;;;3.55;1.80;;;10.40;99.90;;;;;;5059213;28;20044;-69
2022/07/17 02:01:32;;;;;;;2.80;1.60;;;10.30;99.90;;;;;;5076492;28;20052;-69
2022/07/17 02:03:57;;;;;;;3.00;1.77;;;10.30;99.90;;;;;;5076294;28;20055;-69
2022/07/17 02:06:23;;;;;;;6.28;1.73;;;10.30;99.90;;;;;;5075981;28;20041;-69
2022/07/17 02:08:50;;;;;;;5.70;2.13;;;10.30;99.90;;;;;;5076584;28;20117;-70
2022/07/17 02:11:17;;;;;;;2.78;1.98;;;10.30;99.90;;;;;;5076044;28;20048;-69
2022/07/17 02:13:42;;;;;;;9.20;2.15;;;10.20;99.90;;;;;;5058189;28;20468;-70
2022/07/17 02:16:08;;;;;;;3.42;1.65;;;10.20;99.90;;;;;;5058334;28;20052;-70
2022/07/17 02:18:34;;;;;;;4.68;1.73;;;10.20;99.90;;;;;;5076180;28;20040;-70
2022/07/17 02:21:00;;;;;;;4.10;1.85;;;10.20;99.90;;;;;;5059309;28;20060;-70
2022/07/17 02:23:26;;;;;;;5.80;2.03;;;10.20;99.90;;;;;;5075927;28;20365;-70
2022/07/17 02:25:51;;;;;;;3.55;1.75;;;10.20;99.90;;;;;;5075510;28;20446;-70
2022/07/17 02:28:17;;;;;;;4.22;2.08;;;10.20;99.90;;;;;;5075603;28;20097;-69
2022/07/17 02:30:42;;;;;;;3.72;1.80;;;10.30;99.90;;;;;;5075603;28;20342;-70
2022/07/17 02:33:08;;;;;;;3.97;2.33;;;10.20;99.90;;;;;;5075555;28;20076;-70
2022/07/17 02:35:34;;;;;;;4.88;2.17;;;10.20;99.90;;;;;;5075488;28;20372;-70
2022/07/17 02:38:00;;;;;;;8.65;2.53;;;10.20;99.90;;;;;;5076066;28;20040;-70
2022/07/17 02:40:25;;;;;;;5.35;1.90;;;10.20;99.90;;;;;;5075416;28;20071;-70
2022/07/17 02:42:51;;;;;;;3.88;1.95;;;10.20;99.90;;;;;;5075085;28;20392;-70
2022/07/17 02:45:18;;;;;;;5.85;2.17;;;10.20;99.90;;;;;;5074850;28;20406;-70
2022/07/17 02:47:43;;;;;;;8.20;2.20;;;10.20;99.90;;;;;;5075444;28;20040;-69
2022/07/17 02:50:11;;;;;;;6.85;2.42;;;10.20;99.90;;;;;;5075258;28;20055;-69
2022/07/17 02:52:37;;;;;;;5.50;2.45;;;10.20;99.90;;;;;;5075224;28;20123;-70
2022/07/17 02:55:02;;;;;;;6.88;1.90;;;10.10;99.90;;;;;;5074899;28;20064;-70
2022/07/17 02:57:28;;;;;;;5.25;2.17;;;10.10;99.90;;;;;;5075198;28;20045;-69
2022/07/17 02:59:53;;;;;;;6.75;2.63;;;10.10;99.90;;;;;;5075041;28;20071;-69
2022/07/17 03:02:19;;;;;;;4.10;2.47;;;10.10;99.90;;;;;;5075028;28;20102;-70
2022/07/17 03:04:45;;;;;;;4.72;2.15;;;10.10;99.90;;;;;;5074960;28;20093;-70
2022/07/17 03:07:10;;;;;;;4.80;2.30;;;10.10;99.90;;;;;;5075592;28;20087;-70
2022/07/17 03:09:36;;;;;;;5.43;2.17;;;10.00;99.90;;;;;;5074934;28;20037;-69
2022/07/17 03:12:02;;;;;;;6.40;2.22;;;10.00;99.90;;;;;;5058193;28;20353;-70
2022/07/17 03:14:27;;;;;;;7.75;2.50;;;10.00;99.90;;;;;;5074190;28;20051;-70
2022/07/17 03:16:53;;;;;;;3.70;1.65;;;10.00;99.90;;;;;;5075512;28;20087;-70
2022/07/17 03:19:19;;;;;;;4.93;2.17;;;10.00;99.90;;;;;;5074890;28;20048;-70
2022/07/17 03:21:44;;;;;;;4.57;2.22;;;10.00;99.90;;;;;;5074932;28;20044;-69
2022/07/17 03:24:10;;;;;;;4.28;2.53;;;10.00;99.90;;;;;;5074811;28;20041;-69
2022/07/17 03:26:35;;;;;;;5.85;2.45;;;9.90;99.90;;;;;;5057311;28;20048;-70
2022/07/17 03:29:01;;;;;;;15.48;2.78;;;9.90;99.90;;;;;;5074749;28;20118;-70
2022/07/17 03:31:27;;;;;;;3.85;2.25;;;9.90;99.90;;;;;;5075419;28;20095;-69
2022/07/17 03:33:52;;;;;;;5.28;2.17;;;9.90;99.90;;;;;;5075065;28;20449;-70
2022/07/17 03:36:18;;;;;;;3.72;2.50;;;9.90;99.90;;;;;;5074974;28;20055;-69
2022/07/17 03:38:43;;;;;;;3.45;2.10;;;9.90;99.90;;;;;;5074413;28;20045;-69
2022/07/17 03:41:09;;;;;;;4.90;2.60;;;9.90;99.90;;;;;;5074522;28;20110;-70
2022/07/17 03:43:35;;;;;;;4.60;2.58;;;9.90;99.90;;;;;;5074633;28;20356;-70
2022/07/17 03:46:00;;;;;;;3.92;2.30;;;10.10;99.90;;;;;;5057580;28;20120;-69
2022/07/17 03:48:26;;;;;;;8.27;2.33;;;10.00;99.90;;;;;;5075320;28;20056;-69
2022/07/17 03:50:51;;;;;;;7.30;2.25;;;10.00;99.90;;;;;;5040156;28;20202;-69
2022/07/17 03:53:17;;;;;;;4.60;2.30;;;10.00;99.90;;;;;;5074602;28;20419;-69
2022/07/17 03:55:43;;;;;;;13.63;2.70;;;10.00;99.90;;;;;;5074300;28;20048;-70
2022/07/17 03:58:08;;;;;;;6.57;3.33;;;10.10;99.90;;;;;;5077032;28;20044;-70
2022/07/17 04:00:34;;;;;;;4.53;2.35;;;10.00;99.90;;;;;;5078467;28;20037;-70
2022/07/17 04:02:59;;;;;;;6.25;2.85;;;10.00;99.90;;;;;;5078361;28;20049;-70
2022/07/17 04:05:25;;;;;;;5.13;2.35;;;10.10;99.90;;;;;;5078294;28;20571;-70
2022/07/17 04:07:50;;;;;;;8.40;2.20;;;10.10;99.90;;;;;;5078463;28;20127;-69
2022/07/17 04:10:16;;;;;;;4.22;2.33;;;10.20;99.90;;;;;;5078404;28;20052;-69
2022/07/17 04:12:42;;;;;;;4.63;2.00;;;10.20;99.90;;;;;;5078154;28;20040;-70
2022/07/17 04:15:09;;;;;;;8.07;2.58;;;10.30;99.90;;;;;;5078133;28;20052;-70
2022/07/17 04:17:34;;;;;;;5.05;2.28;;;10.40;99.90;;;;;;5078120;28;20083;-70
2022/07/17 04:20:00;;;;;;;8.93;2.92;;;10.40;99.90;;;;;;5060433;28;20485;-69
2022/07/17 04:22:25;;;;;;;5.43;2.33;;;10.50;99.90;;;;;;5077912;28;20131;-69
2022/07/17 04:24:52;;;;;;;4.47;2.45;;;10.60;99.90;;;;;;5078074;28;20036;-69
2022/07/17 04:27:18;;;;;;;5.68;2.15;;;10.70;99.90;;;;;;5060572;28;20457;-70
2022/07/17 04:29:44;;;;;;;5.95;2.17;;;10.70;99.90;;;;;;5078653;28;20063;-70
2022/07/17 04:32:10;;;;;;;5.30;2.40;;;10.90;99.90;;;;;;5077865;28;20048;-70
2022/07/17 04:34:36;;;;;;;4.32;2.10;;;11.00;99.90;;;;;;5077820;28;20040;-69
2022/07/17 04:37:03;;;;;;;7.22;3.10;;;11.00;99.90;;;;;;5077794;28;20094;-69
2022/07/17 04:39:29;;;;;;;7.15;2.83;;;11.10;99.90;;;;;;5077612;28;20053;-69
2022/07/17 04:41:55;;;;;;;5.03;2.60;;;11.10;99.90;;;;;;5077377;28;20078;-70
2022/07/17 04:44:21;;;;;;;5.20;2.67;;;11.20;99.90;;;;;;5077596;28;20055;-69
2022/07/17 04:46:46;;;;;;;5.65;2.30;;;11.30;99.90;;;;;;5077630;28;20109;-70
2022/07/17 04:49:13;;;;;;;17.00;2.80;;;11.40;99.90;;;;;;5077582;28;20544;-70
2022/07/17 04:51:38;;;;;;;4.43;2.50;;;11.50;99.90;;;;;;5077447;28;20123;-70
2022/07/17 04:54:04;;;;;;;5.43;2.72;;;11.50;99.90;;;;;;5077471;28;20106;-69
2022/07/17 04:56:29;;;;;;;5.95;3.03;;;11.60;99.90;;;;;;5077201;28;20059;-70
2022/07/17 04:58:55;;;;;;;4.95;2.33;;;11.70;99.90;;;;;;5077375;28;20045;-70
2022/07/17 05:01:21;;;;;;;8.48;2.85;;;11.80;99.90;;;;;;5077748;28;20068;-70
2022/07/17 05:03:46;;;;;;;6.80;2.40;;;11.90;99.90;;;;;;5077233;28;20050;-70
2022/07/17 05:06:12;;;;;;;6.47;2.13;;;12.00;99.90;;;;;;5077367;28;20044;-69
2022/07/17 05:08:38;;;;;;;7.97;2.33;;;12.00;99.90;;;;;;5076307;28;20476;-70
2022/07/17 05:11:03;;;;;;;6.10;1.98;;;12.00;99.90;;;;;;5076767;28;20056;-69
2022/07/17 05:13:29;;;;;;;3.63;1.92;;;12.00;99.90;;;;;;5059542;28;20479;-70
2022/07/17 05:15:55;;;;;;;4.97;2.17;;;12.00;99.90;;;;;;5077090;28;20187;-69
2022/07/17 05:18:20;;;;;;;4.57;1.88;;;12.10;99.90;;;;;;5077571;28;20055;-70
2022/07/17 05:20:46;;;;;;;4.72;2.28;;;12.20;99.90;;;;;;5077241;28;20484;-70
2022/07/17 05:23:12;;;;;;;4.28;2.00;;;12.30;99.90;;;;;;5076995;28;20144;-70
2022/07/17 05:25:37;;;;;;;6.07;2.28;;;12.40;99.90;;;;;;5076781;28;20041;-70
2022/07/17 05:28:03;;;;;;;3.97;2.17;;;12.50;99.90;;;;;;5076792;28;20048;-69
2022/07/17 05:30:30;;;;;;;9.52;2.20;;;12.50;99.90;;;;;;5077220;28;20063;-70
2022/07/17 05:32:56;;;;;;;6.03;1.88;;;12.60;99.90;;;;;;5076777;28;20041;-70
2022/07/17 05:35:22;;;;;;;4.68;1.85;;;12.70;99.90;;;;;;5076972;28;20060;-70
2022/07/17 05:37:47;;;;;;;5.38;2.72;;;12.80;99.90;;;;;;5076762;28;20044;-70
2022/07/17 05:40:13;;;;;;;4.15;1.80;;;12.90;99.90;;;;;;5076547;28;20356;-69
2022/07/17 05:42:39;;;;;;;5.00;1.80;;;12.90;99.90;;;;;;5076527;28;20051;-70
2022/07/17 05:45:05;;;;;;;4.40;2.25;;;13.00;99.90;;;;;;5076853;28;20483;-70
2022/07/17 05:47:31;;;;;;;5.63;2.35;;;13.00;99.90;;;;;;5077197;28;20353;-69
2022/07/17 05:49:57;;;;;;;6.63;2.20;;;13.10;99.90;;;;;;5076384;28;20102;-70
2022/07/17 05:52:23;;;;;;;5.60;1.90;;;13.30;99.90;;;;;;5076114;28;20048;-70
2022/07/17 05:54:48;;;;;;;3.00;1.45;;;13.40;99.90;;;;;;5076560;28;20075;-70
2022/07/17 05:57:14;;;;;;;5.65;2.00;;;13.60;99.90;;;;;;5059179;28;20068;-70
2022/07/17 05:59:39;;;;;;;2.85;1.73;;;13.80;99.90;;;;;;5059491;28;20432;-70
2022/07/17 06:02:05;;;;;;;4.70;1.98;;;14.20;99.90;;;;;;5076487;28;20131;-70
2022/07/17 06:04:31;;;;;;;6.18;1.55;;;14.80;99.90;;;;;;5076627;28;20040;-70
2022/07/17 06:06:57;;;;;;;3.65;2.05;;;15.30;99.90;;;;;;5076108;28;20045;-70
2022/07/17 06:09:22;;;;;;;4.55;1.40;;;15.90;99.90;;;;;;5076488;28;20123;-70
2022/07/17 06:11:48;;;;;;;3.35;1.67;;;17.00;99.90;;;;;;5059226;28;20453;-71
2022/07/17 06:14:14;;;;;;;4.10;1.60;;;18.40;99.90;;;;;;5075827;28;20102;-70
2022/07/17 06:16:39;;;;;;;6.10;1.63;;;19.70;99.90;;;;;;5058498;28;20044;-70
2022/07/17 06:19:05;;;;;;;7.50;1.50;;;21.20;99.90;;;;;;5075912;28;20072;-71
2022/07/17 06:21:30;;;;;;;3.80;1.10;;;22.50;99.90;;;;;;5075375;28;20071;-71
2022/07/17 06:23:56;;;;;;;7.18;1.60;;;23.50;99.90;;;;;;5075808;28;20101;-71
2022/07/17 06:26:21;;;;;;;1.73;0.90;;;24.10;99.40;;;;;;5075490;28;20044;-70
2022/07/17 06:28:48;;;;;;;4.45;1.10;;;24.90;97.80;;;;;;5075657;28;20129;-71
2022/07/17 06:31:14;;;;;;;3.78;1.48;;;25.50;97.30;;;;;;5075565;28;20052;-71
2022/07/17 06:33:40;;;;;;;4.88;1.13;;;26.00;95.60;;;;;;5075548;28;20190;-71
2022/07/17 06:36:05;;;;;;;3.63;1.20;;;26.20;95.60;;;;;;5075611;28;20044;-70
2022/07/17 06:38:33;;;;;;;5.93;0.90;;;27.00;95.30;;;;;;5075329;28;20080;-69
2022/07/17 06:40:59;;;;;;;5.80;1.33;;;27.40;94.40;;;;;;5075844;28;20059;-69
2022/07/17 06:43:25;;;;;;;3.95;1.02;;;28.00;93.60;;;;;;5075369;28;20131;-69
2022/07/17 06:45:53;;;;;;;2.70;0.90;;;28.50;93.30;;;;;;5075256;28;20132;-69
2022/07/17 06:48:20;;;;;;;2.38;0.80;;;28.10;92.20;;;;;;5075665;28;20059;-69
2022/07/17 06:50:45;;;;;;;2.78;0.85;;;28.10;92.50;;;;;;5075301;28;20380;-69
2022/07/17 06:53:11;;;;;;;2.15;0.65;;;28.50;91.90;;;;;;5075108;28;20051;-70
2022/07/17 06:55:36;;;;;;;5.13;0.80;;;28.30;91.10;;;;;;5075946;28;20453;-69
2022/07/17 06:58:02;;;;;;;2.67;0.80;;;27.70;90.90;;;;;;5075515;28;20089;-69
2022/07/17 07:00:28;;;;;;;2.30;0.90;;;26.50;91.70;;;;;;5075165;28;20033;-69
2022/07/17 07:02:53;;;;;;;4.72;1.33;;;25.50;92.20;;;;;;5075018;28;20044;-69
2022/07/17 07:05:19;;;;;;;5.07;1.00;;;24.50;93.00;;;;;;5057498;28;20044;-69
2022/07/17 07:07:44;;;;;;;4.35;1.40;;;23.70;93.40;;;;;;5075157;28;20044;-69
2022/07/17 07:10:10;;;;;;;3.30;1.10;;;23.00;94.30;;;;;;5074948;28;20045;-68
2022/07/17 07:12:36;;;;;;;4.38;1.70;;;22.50;95.00;;;;;;5075016;28;20045;-69
2022/07/17 07:15:02;;;;;;;4.22;1.05;;;22.20;95.40;;;;;;5074710;28;20048;-68
2022/07/17 07:17:28;;;;;;;3.67;1.30;;;21.90;95.70;;;;;;5075152;28;20044;-71
2022/07/17 07:19:54;;;;;;;4.65;1.10;;;21.40;95.90;;;;;;5074994;28;20277;-70
2022/07/17 07:22:19;;;;;;;7.40;0.85;;;21.10;96.10;;;;;;5074911;28;20040;-71
2022/07/17 07:24:45;;;;;;;4.93;1.08;;;20.80;96.70;;;;;;5075195;28;20055;-71
2022/07/17 07:27:10;;;;;;;1.27;0.70;;;20.60;97.20;;;;;;5075145;28;20055;-71
2022/07/17 07:29:36;;;;;;;6.60;1.20;;;20.50;97.50;;;;;;5074826;28;20445;-70
2022/07/17 07:32:02;;;;;;;4.40;1.05;;;20.40;97.90;;;;;;5074480;28;20126;-70
2022/07/17 07:34:27;;;;;;;2.78;0.93;;;20.20;98.10;;;;;;5074716;28;20098;-71
2022/07/17 07:36:53;;;;;;;2.88;0.85;;;20.10;98.10;;;;;;5075098;28;20076;-70
2022/07/17 07:39:18;;;;;;;3.03;0.65;;;20.00;98.00;;;;;;5056941;28;20044;-71
2022/07/17 07:41:44;;;;;;;5.28;0.90;;;19.90;98.80;;;;;;5074746;28;20452;-71
2022/07/17 07:44:10;;;;;;;2.92;0.90;;;19.90;99.00;;;;;;5074829;28;20484;-71
2022/07/17 07:46:35;;;;;;;2.40;0.90;;;20.00;99.00;;;;;;5074881;28;20048;-70
2022/07/17 07:49:01;;;;;;;2.75;0.75;;;19.70;98.40;;;;;;5074619;28;20047;-71
2022/07/17 07:51:26;;;;;;;2.78;0.90;;;19.80;99.00;;;;;;5074578;28;20039;-71
2022/07/17 07:53:52;;;;;;;1.98;0.80;;;20.00;99.40;;;;;;5074525;28;20123;-71
2022/07/17 07:56:17;;;;;;;3.50;0.77;;;20.20;99.10;;;;;;5057888;28;20468;-70
2022/07/17 07:58:43;;;;;;;2.63;0.90;;;20.40;98.90;;;;;;5075039;28;20044;-71
2022/07/17 08:01:08;;;;;;;5.25;1.05;;;20.20;98.10;;;;;;5074830;28;20166;-71
2022/07/17 08:03:34;;;;;;;2.85;0.73;;;20.50;98.40;;;;;;5074393;28;20051;-71
2022/07/17 08:05:59;;;;;;;3.13;0.90;;;20.30;97.70;;;;;;5074205;28;20063;-70
2022/07/17 08:08:26;;;;;;;6.80;1.77;;;20.40;97.90;;;;;;5074367;28;20068;-71
2022/07/17 08:10:51;;;;;;;5.88;0.88;;;20.50;97.80;;;;;;5074440;28;20040;-71
2022/07/17 08:13:17;;;;;;;3.90;1.05;;;20.40;98.00;;;;;;5074618;28;20094;-70
2022/07/17 08:15:43;;;;;;;3.97;1.45;;;20.50;98.10;;;;;;5074417;28;20044;-70
2022/07/17 08:18:08;;;;;;;2.28;0.80;;;20.50;98.40;;;;;;5074531;28;20056;-70
2022/07/17 08:20:34;;;;;;;4.75;0.88;;;20.70;98.20;;;;;;5074466;28;20036;-70
2022/07/17 08:22:59;;;;;;;3.10;1.00;;;20.90;98.00;;;;;;5074288;28;20040;-71
2022/07/17 08:25:25;;;;;;;2.55;1.00;;;21.30;97.80;;;;;;5074613;28;20476;-71
2022/07/17 08:27:51;;;;;;;4.95;1.08;;;22.00;97.30;;;;;;5074654;28;20379;-71
2022/07/17 08:30:16;;;;;;;2.20;0.80;;;22.60;96.80;;;;;;5074256;28;20467;-71
2022/07/17 08:32:43;;;;;;;2.03;0.80;;;23.40;94.50;;;;;;5074391;28;20508;-71
2022/07/17 08:35:09;;;;;;;2.88;0.82;;;24.20;95.30;;;;;;5074399;28;20040;-71
2022/07/17 08:37:48;;;;;;;3.75;0.80;;;24.80;94.70;;;;;;5074191;28;20132;-71
2022/07/17 08:40:22;;;;;;;3.15;0.93;;;25.30;94.00;;;;;;5074316;28;20194;-71
2022/07/17 08:42:49;;;;;;;4.07;0.70;;;26.00;93.90;;;;;;5074677;28;20484;-70
2022/07/17 08:45:15;;;;;;;5.05;0.90;;;26.40;93.30;;;;;;5077529;28;20086;-69
2022/07/17 08:47:41;;;;;;;3.60;1.00;;;26.40;91.70;;;;;;5077623;28;20079;-69
2022/07/17 08:50:11;;;;;;;5.38;0.80;;;26.40;92.30;;;;;;5060002;28;20052;-69
2022/07/17 08:52:39;;;;;;;2.72;0.75;;;26.60;92.30;;;;;;5077256;28;20446;-69
2022/07/17 08:55:10;;;;;;;2.55;0.98;;;26.90;92.70;;;;;;5077783;28;20131;-69
2022/07/17 08:57:43;;;;;;;3.42;0.70;;;27.10;91.50;;;;;;5077984;28;20040;-69
2022/07/17 09:00:10;;;;;;;2.80;0.80;;;26.60;90.80;;;;;;5078004;28;20071;-70
2022/07/17 09:02:38;;;;;;;2.42;0.80;;;26.60;90.90;;;;;;5077857;28;20048;-70
2022/07/17 09:05:04;;;;;;;4.15;0.65;;;26.50;91.40;;;;;;5077173;28;20040;-70
2022/07/17 09:07:30;;;;;;;2.90;0.88;;;26.90;92.20;;;;;;5077069;28;20594;-70
2022/07/17 09:09:56;;;;;;;5.47;1.38;;;26.40;91.50;;;;;;5077243;28;20040;-70
2022/07/17 09:12:27;;;;;;;2.80;0.75;;;26.90;92.50;;;;;;5077378;28;20059;-70
2022/07/17 09:14:53;;;;;;;2.17;0.57;;;26.90;90.90;;;;;;5077061;28;20049;-71
2022/07/17 09:17:19;;;;;;;5.10;0.90;;;26.40;91.20;;;;;;5077625;28;20127;-70
2022/07/17 09:19:45;;;;;;;2.35;0.65;;;26.50;91.30;;;;;;5077097;28;20049;-71
2022/07/17 09:22:18;;;;;;;1.88;0.77;;;26.60;91.90;;;;;;5076873;28;20484;-70
2022/07/17 09:24:48;;;;;;;3.72;1.13;;;26.60;92.30;;;;;;5077157;28;20106;-70
2022/07/17 09:27:28;;;;;;;4.38;0.77;;;26.50;91.90;;;;;;5076805;28;20055;-70
2022/07/17 09:30:09;;;;;;;4.43;1.08;;;26.30;92.20;;;;;;5076792;28;20472;-70
2022/07/17 09:32:40;;;;;;;2.75;0.80;;;26.10;91.20;;;;;;5077191;28;20040;-69
2022/07/17 09:35:09;;;;;;;6.07;1.23;;;25.50;91.70;;;;;;5076620;28;20041;-70
2022/07/17 09:37:36;;;;;;;4.85;1.00;;;25.00;92.00;;;;;;5076805;28;20051;-70
2022/07/17 09:40:08;;;;;;;3.30;0.90;;;24.70;92.00;;;;;;5058956;28;20048;-69
2022/07/17 09:42:34;;;;;;;3.92;1.10;;;24.70;92.80;;;;;;5076011;28;20105;-70
2022/07/17 09:45:02;;;;;;;5.45;1.13;;;24.80;93.10;;;;;;5059299;28;20048;-70
2022/07/17 09:47:30;;;;;;;2.67;0.57;;;24.90;93.00;;;;;;5076543;28;20056;-69
2022/07/17 09:49:57;;;;;;;5.05;1.02;;;25.00;92.40;;;;;;5076648;28;20045;-70
2022/07/17 09:52:24;;;;;;;4.32;1.02;;;24.80;92.20;;;;;;5076188;28;20040;-70
2022/07/17 09:54:54;;;;;;;3.17;0.70;;;24.50;91.50;;;;;;5075224;28;20053;-70
2022/07/17 09:57:24;;;;;;;2.97;0.80;;;24.00;91.90;;;;;;5076338;28;20063;-71
2022/07/17 09:59:52;;;;;;;3.72;0.70;;;23.80;92.20;;;;;;5076305;28;20044;-70
2022/07/17 10:02:19;;;;;;;3.67;0.75;;;23.90;92.60;;;;;;5076252;28;20456;-70
2022/07/17 10:04:46;;;;;;;2.90;0.88;;;24.00;92.80;;;;;;5076113;28;20449;-70
2022/07/17 10:07:12;;;;;;;3.45;0.90;;;24.00;92.40;;;;;;5076573;28;20453;-69
2022/07/17 10:09:39;;;;;;;4.28;0.90;;;23.90;92.30;;;;;;5076065;28;20123;-69
2022/07/17 10:12:06;;;;;;;2.92;0.90;;;23.90;92.90;;;;;;5076049;28;20072;-70
2022/07/17 10:14:33;;;;;;;3.58;1.13;;;23.90;92.70;;;;;;5075760;28;20468;-70
2022/07/17 10:17:13;;;;;;;3.28;0.70;;;24.00;92.50;;;;;;5075764;28;20044;-70
2022/07/17 10:19:50;;;;;;;1.00;0.70;;;24.10;92.40;;;;;;5075913;28;20056;-70
2022/07/17 10:22:16;;;;;;;2.60;0.80;;;23.80;92.20;;;;;;5075558;28;20468;-70
2022/07/17 10:24:49;;;;;;;3.17;1.20;;;24.00;93.10;;;;;;5075661;28;20048;-70
2022/07/17 10:27:22;;;;;;;1.92;0.60;;;24.30;92.60;;;;;;5075683;28;20070;-69
2022/07/17 10:30:03;;;;;;;2.55;1.02;;;24.10;92.70;;;;;;5075600;28;20136;-69
2022/07/17 10:32:28;;;;;;;3.38;0.75;;;24.20;92.20;;;;;;5075559;28;20040;-70
2022/07/17 10:35:05;;;;;;;2.13;0.80;;;24.40;93.00;;;;;;5076045;28;20365;-70
2022/07/17 10:37:36;;;;;;;4.10;1.00;;;24.50;92.60;;;;;;5075831;28;20434;-70
2022/07/17 10:40:07;;;;;;;4.43;0.80;;;24.60;92.30;;;;;;5075452;28;20050;-70
2022/07/17 10:42:40;;;;;;;2.63;1.02;;;24.80;92.30;;;;;;5075963;28;20414;-70
2022/07/17 10:45:19;;;;;;;2.50;0.82;;;24.70;92.40;;;;;;5075045;28;20044;-70
2022/07/17 10:48:08;;;;;;;2.58;1.33;;;24.60;92.50;;;;;;5075143;28;20464;-70
2022/07/17 10:50:35;;;;;;;4.07;0.90;;;24.90;92.70;;;;;;5075958;28;20349;-70
2022/07/17 10:53:05;;;;;;;2.33;1.02;;;24.80;92.10;;;;;;5075237;28;20044;-69
2022/07/17 10:55:31;;;;;;;2.60;0.70;;;24.80;91.80;;;;;;5075528;28;20054;-69
2022/07/17 10:57:57;;;;;;;1.63;0.70;;;24.90;92.60;;;;;;5075224;28;20036;-70
2022/07/17 11:00:23;;;;;;;3.30;0.80;;;25.00;91.90;;;;;;5075420;28;20037;-70
2022/07/17 11:02:49;;;;;;;2.60;0.65;;;25.00;92.20;;;;;;5075156;28;20484;-70
2022/07/17 11:05:16;;;;;;;3.05;0.77;;;25.30;92.50;;;;;;5074968;28;20414;-71
2022/07/17 11:07:56;;;;;;;2.50;1.13;;;25.30;92.00;;;;;;5075541;28;20052;-69
2022/07/17 11:10:27;;;;;;;2.50;1.02;;;25.20;90.90;;;;;;5075687;28;20430;-70
2022/07/17 11:12:54;;;;;;;2.53;0.90;;;25.30;92.30;;;;;;5074823;28;20503;-70
2022/07/17 11:15:19;;;;;;;2.80;1.02;;;25.30;92.30;;;;;;5074924;28;20052;-70
2022/07/17 11:17:48;;;;;;;2.03;0.88;;;25.40;92.40;;;;;;5074962;28;20036;-70
2022/07/17 11:20:15;;;;;;;1.60;0.85;;;25.40;92.10;;;;;;5075417;28;20045;-69
2022/07/17 11:22:41;;;;;;;1.25;0.60;;;25.30;92.00;;;;;;5074937;28;20102;-70
2022/07/17 11:25:08;;;;;;;2.30;0.77;;;25.20;91.90;;;;;;5074869;28;20135;-70
2022/07/17 11:27:34;;;;;;;2.55;0.80;;;25.40;92.10;;;;;;5074789;28;20048;-70
2022/07/17 11:30:03;;;;;;;3.70;1.17;;;25.20;91.80;;;;;;5075433;28;20357;-70
2022/07/17 11:32:36;;;;;;;2.63;0.80;;;24.90;91.20;;;;;;5074813;28;20052;-70
2022/07/17 11:35:13;;;;;;;2.80;0.80;;;24.00;91.70;;;;;;5074445;28;20396;-70
2022/07/17 11:37:38;;;;;;;3.58;0.80;;;24.40;91.90;;;;;;5074769;28;20041;-69
2022/07/17 11:40:05;;;;;;;3.42;1.08;;;24.10;91.70;;;;;;5074548;28;20040;-70
2022/07/17 11:42:30;;;;;;;2.58;1.08;;;24.00;92.10;;;;;;5075023;28;20041;-69
2022/07/17 11:44:57;;;;;;;1.80;0.50;;;24.00;92.20;;;;;;5074378;28;20426;-69
2022/07/17 11:47:26;;;;;;;2.45;1.05;;;24.10;92.60;;;;;;5057365;28;20049;-70
2022/07/17 11:50:03;;;;;;;3.10;0.77;;;24.00;92.30;;;;;;5074920;28;20084;-70
2022/07/17 11:52:38;;;;;;;3.70;0.88;;;24.10;92.50;;;;;;5074320;28;20040;-69
2022/07/17 11:55:04;;;;;;;6.32;1.00;;;24.50;92.50;;;;;;5074981;28;20056;-69
2022/07/17 11:57:42;;;;;;;2.70;0.90;;;24.70;92.50;;;;;;5074624;28;20129;-69
2022/07/17 12:00:10;;;;;;;2.25;0.80;;;25.00;92.60;;;;;;5074421;28;20051;-69
2022/07/17 12:02:36;;;;;;;3.72;1.20;;;25.40;92.50;;;;;;5074939;28;20044;-69
2022/07/17 12:05:01;;;;;;;2.88;0.85;;;25.70;92.40;;;;;;5074458;28;20053;-70
2022/07/17 12:07:47;;;;;;;2.97;0.90;;;25.60;91.60;;;;;;5074893;28;20087;-70
2022/07/17 12:10:16;;;;;;;3.10;1.35;;;25.70;92.50;;;;;;5074990;28;20365;-69
2022/07/17 12:12:53;;;;;;;3.78;1.02;;;26.00;91.80;;;;;;5074827;28;20052;-69
2022/07/17 12:15:19;;;;;;;2.63;1.17;;;25.60;91.30;;;;;;5074823;28;20044;-70
2022/07/17 12:17:44;;;;;;;5.25;1.10;;;25.60;91.40;;;;;;5074321;28;20480;-69
2022/07/17 12:20:11;;;;;;;1.95;1.00;;;25.50;91.70;;;;;;5078163;28;20047;-69
2022/07/17 12:22:47;;;;;;;2.58;1.05;;;25.50;91.70;;;;;;5078232;28;20048;-70
2022/07/17 12:25:27;;;;;;;1.92;0.90;;;25.70;92.20;;;;;;5078376;28;20124;-70
2022/07/17 12:27:53;;;;;;;3.85;0.85;;;25.80;91.10;;;;;;5060601;28;20460;-69
2022/07/17 12:30:19;;;;;;;7.25;1.10;;;25.80;91.80;;;;;;5077984;28;20036;-70
2022/07/17 12:32:47;;;;;;;2.78;1.20;;;26.00;91.80;;;;;;5060601;28;20071;-70
2022/07/17 12:35:13;;;;;;;5.80;1.30;;;26.30;91.80;;;;;;5060428;28;20063;-70
2022/07/17 12:37:38;;;;;;;3.22;1.20;;;26.60;91.40;;;;;;5060145;28;20057;-70
2022/07/17 12:40:05;;;;;;;2.88;1.10;;;26.70;91.40;;;;;;5077639;28;20056;-70
2022/07/17 12:42:31;;;;;;;6.20;1.40;;;26.80;90.60;;;;;;5078276;28;20052;-70
2022/07/17 12:44:56;;;;;;;4.55;1.30;;;26.80;90.80;;;;;;5078492;28;20441;-69
2022/07/17 12:47:22;;;;;;;2.72;1.30;;;26.90;90.80;;;;;;5077579;28;20457;-70
2022/07/17 12:49:48;;;;;;;4.32;1.58;;;26.90;90.60;;;;;;5077611;28;20131;-70